createdAt,value
2018-09-28T00:02:27.240Z,101803.44
2018-09-28T00:05:31.544Z,101803.72
2018-09-28T00:08:35.830Z,101810.90
2018-09-28T00:11:40.088Z,101812.78
2018-09-28T00:14:44.379Z,101810.91
2018-09-28T00:17:49.891Z,101822.47
2018-09-28T00:20:54.182Z,101820.47
2018-09-28T00:23:58.448Z,101827.71
2018-09-28T00:27:02.712Z,101829.50
2018-09-28T00:30:07.218Z,101830.77
2018-09-28T00:33:11.543Z,101832.77
2018-09-28T00:36:16.132Z,101834.56
2018-09-28T00:39:20.433Z,101839.25
2018-09-28T00:42:24.689Z,101840.02
2018-09-28T00:45:28.957Z,101849.55
2018-09-28T00:48:33.262Z,101842.64
2018-09-28T00:51:37.533Z,101852.91
2018-09-28T00:54:41.822Z,101849.88
2018-09-28T00:57:46.097Z,101848.50
2018-09-28T01:00:50.436Z,101851.86
2018-09-28T01:03:54.713Z,101858.34
2018-09-28T01:06:59.014Z,101855.31
2018-09-28T01:10:03.301Z,101853.42
2018-09-28T01:13:07.715Z,101853.50
2018-09-28T01:16:12.054Z,101849.84
2018-09-28T01:19:16.339Z,101857.27
2018-09-28T01:22:20.663Z,101856.53
2018-09-28T01:25:24.953Z,101860.09
2018-09-28T01:28:29.239Z,101864.39
2018-09-28T01:31:33.550Z,101858.92
2018-09-28T01:34:39.140Z,101871.59
2018-09-28T01:37:43.437Z,101863.39
2018-09-28T01:40:47.764Z,101867.66
2018-09-28T01:43:52.057Z,101876.85
2018-09-28T01:46:56.324Z,101875.02
2018-09-28T01:50:01.139Z,101885.88
2018-09-28T01:53:05.422Z,101889.20
2018-09-28T01:56:09.708Z,101885.59
2018-09-28T01:59:14.002Z,101889.12
2018-09-28T02:02:18.291Z,101897.19
2018-09-28T02:05:22.553Z,101898.55
2018-09-28T02:08:26.824Z,101900.72
2018-09-28T02:11:31.081Z,101896.25
2018-09-28T02:14:35.353Z,101898.41
2018-09-28T02:17:39.635Z,101899.73
2018-09-28T02:20:45.496Z,101902.98
2018-09-28T02:23:49.790Z,101893.42
2018-09-28T02:26:54.085Z,101894.22
2018-09-28T02:29:58.366Z,101900.77
2018-09-28T02:33:02.703Z,101908.55
2018-09-28T02:36:07.000Z,101916.14
2018-09-28T02:39:11.260Z,101914.33
2018-09-28T02:42:15.508Z,101910.34
2018-09-28T02:45:19.781Z,101916.98
2018-09-28T02:48:24.110Z,101913.81
2018-09-28T02:51:28.490Z,101916.61
2018-09-28T02:54:32.740Z,101915.53
2018-09-28T02:57:37.028Z,101911.90
2018-09-28T03:00:41.302Z,101910.81
2018-09-28T03:03:45.604Z,101911.72
2018-09-28T03:06:50.812Z,101919.86
2018-09-28T03:09:55.112Z,101910.55
2018-09-28T03:12:59.391Z,101914.67
2018-09-28T03:16:03.688Z,101924.77
2018-09-28T03:19:07.967Z,101933.50
2018-09-28T03:22:12.254Z,101932.72
2018-09-28T03:25:16.505Z,101931.36
2018-09-28T03:28:20.818Z,101940.21
2018-09-28T03:31:25.090Z,101946.53
2018-09-28T03:34:29.352Z,101949.63
2018-09-28T03:37:33.668Z,101957.12
2018-09-28T03:40:38.002Z,101959.52
2018-09-28T03:43:42.251Z,101959.33
2018-09-28T03:46:46.517Z,101959.64
2018-09-28T03:49:51.005Z,101964.22
2018-09-28T03:52:55.291Z,101960.41
2018-09-28T03:55:59.518Z,101973.45
2018-09-28T03:59:03.792Z,101977.72
2018-09-28T04:02:08.153Z,101988.07
2018-09-28T04:05:12.423Z,101984.19
2018-09-28T04:08:17.314Z,101985.55
2018-09-28T04:11:21.594Z,101989.11
2018-09-28T04:14:25.862Z,101991.36
2018-09-28T04:17:30.137Z,101996.98
2018-09-28T04:20:34.372Z,101996.13
2018-09-28T04:23:39.189Z,102005.50
2018-09-28T04:26:44.016Z,102003.48
2018-09-28T04:29:48.283Z,102011.12
2018-09-28T04:32:52.558Z,102018.77
2018-09-28T04:35:56.809Z,102030.63
2018-09-28T04:39:01.044Z,102029.46
2018-09-28T04:42:05.314Z,102028.95
2018-09-28T04:45:09.577Z,102032.18
2018-09-28T04:48:14.846Z,102028.27
2018-09-28T04:51:19.137Z,102040.30
2018-09-28T04:54:23.390Z,102042.16
2018-09-28T04:57:27.872Z,102052.83
2018-09-28T05:00:32.150Z,102050.30
2018-09-28T05:03:36.434Z,102056.05
2018-09-28T05:06:41.718Z,102055.54
2018-09-28T05:09:46.015Z,102058.25
2018-09-28T05:12:50.252Z,102060.12
2018-09-28T05:15:54.530Z,102065.11
2018-09-28T05:18:58.835Z,102069.87
2018-09-28T05:22:04.007Z,102075.80
2018-09-28T05:25:08.681Z,102082.30
2018-09-28T05:28:12.941Z,102084.37
2018-09-28T05:31:17.317Z,102086.75
2018-09-28T05:34:21.474Z,102092.17
2018-09-28T05:37:25.726Z,102091.36
2018-09-28T05:40:29.972Z,102094.39
2018-09-28T05:43:35.028Z,102100.13
2018-09-28T05:46:39.260Z,102095.05
2018-09-28T05:49:43.516Z,102096.16
2018-09-28T05:52:47.813Z,102090.55
2018-09-28T05:55:52.141Z,102096.83
2018-09-28T05:59:01.699Z,102102.45
2018-09-28T06:02:11.361Z,102112.74
2018-09-28T06:05:21.065Z,102109.97
2018-09-28T06:08:25.388Z,102112.97
2018-09-28T06:11:29.640Z,102113.73
2018-09-28T06:14:33.901Z,102113.86
2018-09-28T06:17:38.161Z,102122.52
2018-09-28T06:20:42.427Z,102126.88
2018-09-28T06:23:46.691Z,102133.41
2018-09-28T06:26:50.970Z,102138.59
2018-09-28T06:29:55.349Z,102133.44
2018-09-28T06:32:59.630Z,102127.12
2018-09-28T06:36:03.926Z,102133.53
2018-09-28T06:39:08.356Z,102142.09
2018-09-28T06:42:12.677Z,102155.30
2018-09-28T06:45:16.948Z,102156.47
2018-09-28T06:48:21.714Z,102148.13
2018-09-28T06:51:26.050Z,102149.76
2018-09-28T06:54:30.347Z,102153.54
2018-09-28T06:57:34.624Z,102158.91
2018-09-28T07:00:45.833Z,102162.59
2018-09-28T07:03:50.363Z,102164.97
2018-09-28T07:06:54.716Z,102161.91
2018-09-28T07:09:58.973Z,102177.53
2018-09-28T07:13:03.300Z,102182.93
2018-09-28T07:16:07.615Z,102175.36
2018-09-28T07:19:11.913Z,102182.55
2018-09-28T07:22:16.216Z,102191.76
2018-09-28T07:25:20.522Z,102196.23
2018-09-28T07:28:24.847Z,102204.27
2018-09-28T07:31:29.110Z,102204.92
2018-09-28T07:34:33.449Z,102211.41
2018-09-28T07:37:37.712Z,102220.06
2018-09-28T07:40:42.057Z,102222.50
2018-09-28T07:43:46.357Z,102211.27
2018-09-28T07:46:50.668Z,102225.26
2018-09-28T07:49:54.924Z,102232.64
2018-09-28T07:52:59.273Z,102238.52
2018-09-28T07:56:03.572Z,102236.89
2018-09-28T07:59:07.900Z,102246.85
2018-09-28T08:02:12.154Z,102244.78
2018-09-28T08:05:16.471Z,102241.05
2018-09-28T08:08:20.796Z,102240.05
2018-09-28T08:11:25.100Z,102229.34
2018-09-28T08:14:29.392Z,102234.84
2018-09-28T08:17:33.731Z,102249.93
2018-09-28T08:20:38.009Z,102252.90
2018-09-28T08:23:42.946Z,102254.06
2018-09-28T08:26:47.251Z,102258.84
2018-09-28T08:29:51.542Z,102255.56
2018-09-28T08:32:56.010Z,102263.58
2018-09-28T08:36:01.411Z,102268.32
2018-09-28T08:39:08.217Z,102270.13
2018-09-28T08:42:14.315Z,102271.11
2018-09-28T08:45:18.598Z,102275.25
2018-09-28T08:48:22.856Z,102281.88
2018-09-28T08:51:27.141Z,102284.80
2018-09-28T08:54:31.396Z,102285.46
2018-09-28T08:57:35.682Z,102277.17
2018-09-28T09:00:39.932Z,102272.47
2018-09-28T09:03:44.207Z,102281.40
2018-09-28T09:06:48.485Z,102281.70
2018-09-28T09:09:52.736Z,102275.22
2018-09-28T09:12:57.013Z,102287.52
2018-09-28T09:16:01.251Z,102294.13
2018-09-28T09:19:05.556Z,102293.91
2018-09-28T09:22:09.949Z,102284.25
2018-09-28T09:25:14.212Z,102288.74
2018-09-28T09:28:18.552Z,102294.02
2018-09-28T09:31:22.820Z,102296.33
2018-09-28T09:34:27.125Z,102299.39
2018-09-28T09:37:31.533Z,102305.70
2018-09-28T09:40:35.841Z,102305.27
2018-09-28T09:43:40.118Z,102323.53
2018-09-28T09:46:44.358Z,102311.00
2018-09-28T09:49:48.663Z,102316.88
2018-09-28T09:52:53.722Z,102319.81
2018-09-28T09:55:58.064Z,102316.88
2018-09-28T09:59:02.325Z,102319.42
2018-09-28T10:02:11.921Z,102315.73
2018-09-28T10:05:16.207Z,102323.12
2018-09-28T10:08:20.513Z,102324.19
2018-09-28T10:11:24.793Z,102311.91
2018-09-28T10:14:29.087Z,102310.84
2018-09-28T10:17:33.406Z,102314.41
2018-09-28T10:20:37.678Z,102313.05
2018-09-28T10:23:41.981Z,102314.42
2018-09-28T10:26:46.325Z,102319.59
2018-09-28T10:29:50.594Z,102327.48
2018-09-28T10:32:54.881Z,102328.09
2018-09-28T10:35:59.124Z,102336.88
2018-09-28T10:39:03.467Z,102337.59
2018-09-28T10:42:08.038Z,102324.73
2018-09-28T10:45:12.397Z,102328.16
2018-09-28T10:48:16.645Z,102326.83
2018-09-28T10:51:21.042Z,102343.18
2018-09-28T10:54:25.308Z,102339.11
2018-09-28T10:57:29.674Z,102337.98
2018-09-28T11:00:34.019Z,102327.05
2018-09-28T11:03:38.389Z,102338.44
2018-09-28T11:06:42.661Z,102346.53
2018-09-28T11:09:47.071Z,102344.23
2018-09-28T11:12:51.333Z,102348.86
2018-09-28T11:15:55.625Z,102350.82
2018-09-28T11:18:59.947Z,102348.70
2018-09-28T11:22:04.186Z,102360.75
2018-09-28T11:25:08.512Z,102360.84
2018-09-28T11:28:12.797Z,102366.59
2018-09-28T11:31:17.065Z,102366.36
2018-09-28T11:34:21.359Z,102372.97
2018-09-28T11:37:25.651Z,102368.02
2018-09-28T11:40:30.568Z,102364.45
2018-09-28T11:43:34.833Z,102367.80
2018-09-28T11:46:39.093Z,102359.52
2018-09-28T11:49:43.339Z,102368.33
2018-09-28T11:52:47.624Z,102366.84
2018-09-28T11:55:51.893Z,102364.32
2018-09-28T11:58:56.169Z,102361.48
2018-09-28T12:02:00.419Z,102365.37
2018-09-28T12:05:04.693Z,102366.15
2018-09-28T12:08:08.945Z,102368.34
2018-09-28T12:11:13.228Z,102363.62
2018-09-28T12:14:17.491Z,102369.28
2018-09-28T12:17:22.880Z,102377.71
2018-09-28T12:20:27.179Z,102378.87
2018-09-28T12:23:31.481Z,102378.18
2018-09-28T12:26:35.791Z,102380.60
2018-09-28T12:29:40.054Z,102383.88
2018-09-28T12:32:44.337Z,102377.71
2018-09-28T12:35:48.677Z,102369.37
2018-09-28T12:38:53.007Z,102366.22
2018-09-28T12:41:57.243Z,102370.22
2018-09-28T12:45:01.529Z,102368.09
2018-09-28T12:48:05.859Z,102367.36
2018-09-28T12:51:10.136Z,102366.00
2018-09-28T12:54:14.414Z,102368.30
2018-09-28T12:57:18.647Z,102366.17
2018-09-28T13:00:25.130Z,102367.45
2018-09-28T13:03:29.307Z,102366.00
2018-09-28T13:06:33.632Z,102367.67
2018-09-28T13:09:37.928Z,102369.25
2018-09-28T13:12:42.214Z,102375.98
2018-09-28T13:15:46.860Z,102369.84
2018-09-28T13:18:52.147Z,102373.61
2018-09-28T13:21:56.375Z,102370.05
2018-09-28T13:25:00.672Z,102373.33
2018-09-28T13:28:04.998Z,102374.27
2018-09-28T13:31:09.317Z,102376.88
2018-09-28T13:34:13.584Z,102380.05
2018-09-28T13:37:17.826Z,102383.05
2018-09-28T13:40:22.222Z,102379.77
2018-09-28T13:43:26.491Z,102374.43
2018-09-28T13:46:30.972Z,102371.15
2018-09-28T13:49:35.134Z,102372.00
2018-09-28T13:52:39.510Z,102377.27
2018-09-28T13:55:43.812Z,102383.90
2018-09-28T13:58:48.148Z,102383.27
2018-09-28T14:01:52.381Z,102381.16
2018-09-28T14:04:56.667Z,102372.10
2018-09-28T14:08:00.945Z,102384.62
2018-09-28T14:11:05.273Z,102389.45
2018-09-28T14:14:09.555Z,102395.02
2018-09-28T14:17:13.924Z,102409.27
2018-09-28T14:20:18.222Z,102417.23
2018-09-28T14:23:22.496Z,102410.89
2018-09-28T14:26:26.840Z,102409.09
2018-09-28T14:29:31.096Z,102402.44
2018-09-28T14:32:35.436Z,102402.13
2018-09-28T14:35:39.700Z,102406.64
2018-09-28T14:38:45.157Z,102411.90
2018-09-28T14:41:49.991Z,102422.41
2018-09-28T14:44:54.236Z,102418.52
2018-09-28T14:47:58.559Z,102418.80
2018-09-28T14:51:02.977Z,102420.30
2018-09-28T14:54:07.318Z,102426.10
2018-09-28T14:57:11.561Z,102424.39
2018-09-28T15:00:15.931Z,102421.80
2018-09-28T15:03:20.309Z,102429.85
2018-09-28T15:06:24.613Z,102424.59
2018-09-28T15:09:28.832Z,102427.84
2018-09-28T15:12:33.690Z,102422.41
2018-09-28T15:15:37.943Z,102423.00
2018-09-28T15:18:43.362Z,102431.73
2018-09-28T15:21:47.577Z,102439.52
2018-09-28T15:24:51.858Z,102440.27
2018-09-28T15:27:56.217Z,102451.44
2018-09-28T15:31:00.514Z,102463.19
2018-09-28T15:34:04.813Z,102472.17
2018-09-28T15:37:09.103Z,102469.05
2018-09-28T15:40:13.357Z,102462.47
2018-09-28T15:43:17.681Z,102465.20
2018-09-28T15:46:21.970Z,102473.75
2018-09-28T15:49:26.379Z,102472.83
2018-09-28T15:52:30.629Z,102479.16
2018-09-28T15:55:34.859Z,102478.20
2018-09-28T15:58:39.277Z,102474.55
2018-09-28T16:01:43.553Z,102489.52
2018-09-28T16:04:47.849Z,102483.00
2018-09-28T16:07:52.162Z,102487.03
2018-09-28T16:10:56.442Z,102483.07
2018-09-28T16:14:00.691Z,102493.25
2018-09-28T16:17:04.974Z,102489.33
2018-09-28T16:20:09.513Z,102501.30
2018-09-28T16:23:13.821Z,102498.67
2018-09-28T16:26:18.100Z,102501.01
2018-09-28T16:29:22.386Z,102499.02
2018-09-28T16:32:27.394Z,102496.84
2018-09-28T16:35:31.765Z,102508.39
2018-09-28T16:38:36.041Z,102513.91
2018-09-28T16:41:41.189Z,102514.47
2018-09-28T16:44:45.473Z,102514.34
2018-09-28T16:47:49.802Z,102528.32
2018-09-28T16:50:54.051Z,102529.80
2018-09-28T16:53:58.325Z,102532.47
2018-09-28T16:57:02.597Z,102538.28
2018-09-28T17:00:06.897Z,102540.53
2018-09-28T17:03:11.205Z,102542.45
2018-09-28T17:06:15.568Z,102548.47
2018-09-28T17:09:19.878Z,102543.85
2018-09-28T17:12:24.121Z,102547.25
2018-09-28T17:15:28.430Z,102548.17
2018-09-28T17:18:32.706Z,102552.52
2018-09-28T17:21:37.000Z,102555.02
2018-09-28T17:24:41.296Z,102560.73
2018-09-28T17:27:45.599Z,102567.23
2018-09-28T17:30:49.888Z,102568.64
2018-09-28T17:33:54.200Z,102580.09
2018-09-28T17:36:58.488Z,102577.94
2018-09-28T17:40:02.792Z,102579.32
2018-09-28T17:43:07.110Z,102581.80
2018-09-28T17:46:11.390Z,102593.62
2018-09-28T17:49:15.654Z,102589.05
2018-09-28T17:52:19.970Z,102592.83
2018-09-28T17:55:24.956Z,102596.61
2018-09-28T17:58:29.289Z,102604.14
2018-09-28T18:01:33.583Z,102602.16
2018-09-28T18:04:37.890Z,102609.83
2018-09-28T18:07:42.206Z,102608.88
2018-09-28T18:10:46.458Z,102622.34
2018-09-28T18:13:50.805Z,102618.86
2018-09-28T18:16:55.237Z,102626.52
2018-09-28T18:19:59.519Z,102628.78
2018-09-28T18:23:03.816Z,102628.14
2018-09-28T18:26:08.104Z,102626.97
2018-09-28T18:29:12.365Z,102631.77
2018-09-28T18:32:16.629Z,102639.77
2018-09-28T18:35:20.942Z,102636.55
2018-09-28T18:38:25.232Z,102639.81
2018-09-28T18:41:29.516Z,102638.62
2018-09-28T18:44:33.793Z,102638.16
2018-09-28T18:47:38.122Z,102631.36
2018-09-28T18:50:42.404Z,102636.30
2018-09-28T18:53:46.784Z,102644.80
2018-09-28T18:56:51.388Z,102639.22
2018-09-28T18:59:55.729Z,102645.86
2018-09-28T19:03:00.001Z,102648.22
2018-09-28T19:06:04.406Z,102648.23
2018-09-28T19:09:11.894Z,102643.66
2018-09-28T19:12:16.949Z,102640.97
2018-09-28T19:15:23.825Z,102652.18
2018-09-28T19:18:30.043Z,102651.50
2018-09-28T19:21:35.103Z,102647.95
2018-09-28T19:24:39.946Z,102657.44
2018-09-28T19:27:44.798Z,102659.15
2018-09-28T19:30:53.689Z,102662.74
2018-09-28T19:33:58.027Z,102661.91
2018-09-28T19:37:03.445Z,102664.11
2018-09-28T19:40:09.873Z,102660.02
2018-09-28T19:43:16.672Z,102663.94
2018-09-28T19:46:21.749Z,102666.98
2018-09-28T19:49:28.172Z,102667.50
2018-09-28T19:52:33.104Z,102672.27
2018-09-28T19:55:37.904Z,102678.01
2018-09-28T19:58:43.442Z,102680.56
2018-09-28T20:01:51.539Z,102681.23
2018-09-28T20:04:56.022Z,102678.86
2018-09-28T20:08:01.514Z,102682.95
2018-09-28T20:11:06.853Z,102682.28
2018-09-28T20:14:13.086Z,102685.66
2018-09-28T20:17:17.594Z,102691.92
2018-09-28T20:20:22.780Z,102693.28
2018-09-28T20:23:28.442Z,102702.92
2018-09-28T20:26:33.823Z,102703.80
2018-09-28T20:29:38.987Z,102711.41
2018-09-28T20:32:43.742Z,102711.05
2018-09-28T20:35:48.493Z,102711.72
2018-09-28T20:38:54.422Z,102718.00
2018-09-28T20:41:59.845Z,102724.61
2018-09-28T20:45:04.148Z,102724.09
2018-09-28T20:48:08.690Z,102717.13
2018-09-28T20:51:14.028Z,102713.03
2018-09-28T20:54:18.520Z,102707.11
2018-09-28T20:57:22.785Z,102708.44
2018-09-28T21:00:27.077Z,102709.27
2018-09-28T21:03:31.344Z,102710.95
2018-09-28T21:06:35.574Z,102706.23
2018-09-28T21:09:39.900Z,102716.87
2018-09-28T21:12:44.137Z,102718.72
2018-09-28T21:15:48.460Z,102723.28
2018-09-28T21:18:53.170Z,102728.00
2018-09-28T21:21:57.678Z,102729.35
2018-09-28T21:25:01.932Z,102727.95
2018-09-28T21:28:06.197Z,102724.75
2018-09-28T21:31:10.467Z,102717.94
2018-09-28T21:34:14.869Z,102726.38
2018-09-28T21:37:19.127Z,102728.89
2018-09-28T21:40:24.321Z,102727.03
2018-09-28T21:43:28.574Z,102731.59
2018-09-28T21:46:33.442Z,102725.84
2018-09-28T21:49:37.754Z,102723.76
2018-09-28T21:52:42.112Z,102720.56
2018-09-28T21:55:46.592Z,102720.72
2018-09-28T21:58:50.872Z,102717.81
2018-09-28T22:01:55.134Z,102711.20
2018-09-28T22:04:59.675Z,102705.61
2018-09-28T22:08:04.272Z,102714.06
2018-09-28T22:11:09.921Z,102711.15
2018-09-28T22:14:15.085Z,102717.05
2018-09-28T22:17:20.308Z,102722.08
2018-09-28T22:20:24.747Z,102723.03
2018-09-28T22:23:29.022Z,102718.04
2018-09-28T22:26:34.293Z,102717.59
2018-09-28T22:29:38.669Z,102710.44
2018-09-28T22:32:42.939Z,102722.09
2018-09-28T22:35:47.193Z,102728.34
2018-09-28T22:38:51.428Z,102728.34
2018-09-28T22:41:55.734Z,102730.94
2018-09-28T22:45:00.021Z,102732.13
2018-09-28T22:48:04.287Z,102731.95
2018-09-28T22:51:08.545Z,102737.20
2018-09-28T22:54:12.789Z,102737.00
2018-09-28T22:57:17.039Z,102729.53
2018-09-28T23:00:21.317Z,102721.58
2018-09-28T23:03:25.565Z,102722.59
2018-09-28T23:06:29.824Z,102720.59
2018-09-28T23:09:34.105Z,102718.22
2018-09-28T23:12:38.436Z,102718.05
2018-09-28T23:15:42.699Z,102714.25
2018-09-28T23:18:46.966Z,102715.89
2018-09-28T23:21:51.878Z,102722.91
2018-09-28T23:24:56.121Z,102715.91
2018-09-28T23:28:00.335Z,102725.20
2018-09-28T23:31:04.606Z,102720.59
2018-09-28T23:34:08.873Z,102726.62
2018-09-28T23:37:13.126Z,102722.55
2018-09-28T23:40:17.389Z,102728.88
2018-09-28T23:43:21.658Z,102734.86
2018-09-28T23:46:25.882Z,102739.59
2018-09-28T23:49:30.305Z,102741.28
2018-09-28T23:52:34.561Z,102749.88
2018-09-28T23:55:38.790Z,102756.78
2018-09-28T23:58:43.045Z,102758.66
